sensor_id;sensor_type;location;lat;lon;timestamp;temperature;humidity
67555;HTU21D;54385;53.516;49.456;2023-04-30T00:00:31;15.83;43.46
67555;HTU21D;54385;53.516;49.456;2023-04-30T00:02:57;15.84;43.39
67555;HTU21D;54385;53.516;49.456;2023-04-30T00:05:24;15.85;43.23
67555;HTU21D;54385;53.516;49.456;2023-04-30T00:07:50;15.86;42.93
67555;HTU21D;54385;53.516;49.456;2023-04-30T00:10:17;15.88;42.54
67555;HTU21D;54385;53.516;49.456;2023-04-30T00:12:43;15.91;42.60
67555;HTU21D;54385;53.516;49.456;2023-04-30T00:15:10;15.95;42.32
67555;HTU21D;54385;53.516;49.456;2023-04-30T00:17:37;15.97;42.20
67555;HTU21D;54385;53.516;49.456;2023-04-30T00:20:04;16.02;42.10
67555;HTU21D;54385;53.516;49.456;2023-04-30T00:22:31;16.04;41.89
67555;HTU21D;54385;53.516;49.456;2023-04-30T00:24:58;16.03;41.84
67555;HTU21D;54385;53.516;49.456;2023-04-30T00:27:25;16.02;41.58
67555;HTU21D;54385;53.516;49.456;2023-04-30T00:29:51;16.03;41.71
67555;HTU21D;54385;53.516;49.456;2023-04-30T00:32:18;16.01;41.57
67555;HTU21D;54385;53.516;49.456;2023-04-30T00:34:44;16.00;41.62
67555;HTU21D;54385;53.516;49.456;2023-04-30T00:37:11;15.97;41.61
67555;HTU21D;54385;53.516;49.456;2023-04-30T00:39:37;15.93;41.81
67555;HTU21D;54385;53.516;49.456;2023-04-30T00:42:04;15.91;41.85
67555;HTU21D;54385;53.516;49.456;2023-04-30T00:44:30;15.90;41.88
67555;HTU21D;54385;53.516;49.456;2023-04-30T00:46:57;15.91;41.74
67555;HTU21D;54385;53.516;49.456;2023-04-30T00:49:24;15.92;41.62
67555;HTU21D;54385;53.516;49.456;2023-04-30T00:51:51;15.95;41.66
67555;HTU21D;54385;53.516;49.456;2023-04-30T00:54:19;15.92;41.74
67555;HTU21D;54385;53.516;49.456;2023-04-30T00:56:46;15.88;41.85
67555;HTU21D;54385;53.516;49.456;2023-04-30T00:59:13;15.87;41.85
67555;HTU21D;54385;53.516;49.456;2023-04-30T01:01:40;15.87;41.75
67555;HTU21D;54385;53.516;49.456;2023-04-30T01:04:06;15.85;41.98
67555;HTU21D;54385;53.516;49.456;2023-04-30T01:06:33;15.86;41.89
67555;HTU21D;54385;53.516;49.456;2023-04-30T01:08:59;15.89;41.87
67555;HTU21D;54385;53.516;49.456;2023-04-30T01:14:26;15.93;41.54
67555;HTU21D;54385;53.516;49.456;2023-04-30T01:17:07;16.00;41.49
67555;HTU21D;54385;53.516;49.456;2023-04-30T01:19:43;16.03;41.42
67555;HTU21D;54385;53.516;49.456;2023-04-30T01:25:13;16.07;41.17
67555;HTU21D;54385;53.516;49.456;2023-04-30T01:30:34;16.14;41.13
67555;HTU21D;54385;53.516;49.456;2023-04-30T01:33:01;16.18;41.23
67555;HTU21D;54385;53.516;49.456;2023-04-30T01:35:47;16.24;40.84
67555;HTU21D;54385;53.516;49.456;2023-04-30T01:41:36;16.31;40.41
67555;HTU21D;54385;53.516;49.456;2023-04-30T01:44:28;16.37;39.93
67555;HTU21D;54385;53.516;49.456;2023-04-30T01:47:35;16.43;39.81
67555;HTU21D;54385;53.516;49.456;2023-04-30T01:52:53;16.49;40.04
67555;HTU21D;54385;53.516;49.456;2023-04-30T01:55:45;16.54;39.85
67555;HTU21D;54385;53.516;49.456;2023-04-30T01:58:11;16.60;39.82
67555;HTU21D;54385;53.516;49.456;2023-04-30T02:00:38;16.65;39.75
67555;HTU21D;54385;53.516;49.456;2023-04-30T02:03:04;16.69;39.55
67555;HTU21D;54385;53.516;49.456;2023-04-30T02:05:31;16.74;39.35
67555;HTU21D;54385;53.516;49.456;2023-04-30T02:07:57;16.76;39.59
67555;HTU21D;54385;53.516;49.456;2023-04-30T02:10:25;16.80;39.20
67555;HTU21D;54385;53.516;49.456;2023-04-30T02:12:52;16.78;39.53
67555;HTU21D;54385;53.516;49.456;2023-04-30T02:15:19;16.82;39.42
67555;HTU21D;54385;53.516;49.456;2023-04-30T02:17:45;16.85;39.54
67555;HTU21D;54385;53.516;49.456;2023-04-30T02:20:12;16.84;39.58
67555;HTU21D;54385;53.516;49.456;2023-04-30T02:22:38;16.78;39.68
67555;HTU21D;54385;53.516;49.456;2023-04-30T02:25:05;16.78;39.52
67555;HTU21D;54385;53.516;49.456;2023-04-30T02:27:32;16.79;39.94
67555;HTU21D;54385;53.516;49.456;2023-04-30T02:29:59;16.73;40.01
67555;HTU21D;54385;53.516;49.456;2023-04-30T02:32:26;16.70;40.01
67555;HTU21D;54385;53.516;49.456;2023-04-30T02:34:52;16.70;40.07
67555;HTU21D;54385;53.516;49.456;2023-04-30T02:37:18;16.73;40.22
67555;HTU21D;54385;53.516;49.456;2023-04-30T02:39:45;16.76;39.78
67555;HTU21D;54385;53.516;49.456;2023-04-30T02:42:12;16.80;39.99
67555;HTU21D;54385;53.516;49.456;2023-04-30T02:44:38;16.86;40.23
67555;HTU21D;54385;53.516;49.456;2023-04-30T02:47:05;16.96;40.12
67555;HTU21D;54385;53.516;49.456;2023-04-30T02:49:32;17.06;40.11
67555;HTU21D;54385;53.516;49.456;2023-04-30T02:51:58;17.14;39.75
67555;HTU21D;54385;53.516;49.456;2023-04-30T02:54:25;17.21;39.91
67555;HTU21D;54385;53.516;49.456;2023-04-30T02:56:52;17.23;40.23
67555;HTU21D;54385;53.516;49.456;2023-04-30T02:59:18;17.24;40.11
67555;HTU21D;54385;53.516;49.456;2023-04-30T03:01:44;17.26;40.26
67555;HTU21D;54385;53.516;49.456;2023-04-30T03:04:11;17.28;40.50
67555;HTU21D;54385;53.516;49.456;2023-04-30T03:06:37;17.28;40.75
67555;HTU21D;54385;53.516;49.456;2023-04-30T03:09:04;17.28;40.78
67555;HTU21D;54385;53.516;49.456;2023-04-30T03:11:30;17.22;40.78
67555;HTU21D;54385;53.516;49.456;2023-04-30T03:13:57;17.26;40.64
67555;HTU21D;54385;53.516;49.456;2023-04-30T03:16:23;17.33;40.78
67555;HTU21D;54385;53.516;49.456;2023-04-30T03:18:50;17.39;40.30
67555;HTU21D;54385;53.516;49.456;2023-04-30T03:21:16;17.40;40.41
67555;HTU21D;54385;53.516;49.456;2023-04-30T03:23:44;17.43;40.62
67555;HTU21D;54385;53.516;49.456;2023-04-30T03:26:11;17.49;40.16
67555;HTU21D;54385;53.516;49.456;2023-04-30T03:28:37;17.58;40.04
67555;HTU21D;54385;53.516;49.456;2023-04-30T03:31:04;17.64;39.53
67555;HTU21D;54385;53.516;49.456;2023-04-30T03:33:31;17.75;39.28
67555;HTU21D;54385;53.516;49.456;2023-04-30T03:35:58;17.84;39.27
67555;HTU21D;54385;53.516;49.456;2023-04-30T03:38:24;17.94;39.36
67555;HTU21D;54385;53.516;49.456;2023-04-30T03:40:51;18.00;39.07
67555;HTU21D;54385;53.516;49.456;2023-04-30T03:43:17;18.05;38.69
67555;HTU21D;54385;53.516;49.456;2023-04-30T03:45:44;18.08;38.69
67555;HTU21D;54385;53.516;49.456;2023-04-30T03:48:10;18.14;38.24
67555;HTU21D;54385;53.516;49.456;2023-04-30T03:50:37;18.25;38.54
67555;HTU21D;54385;53.516;49.456;2023-04-30T03:53:03;18.28;38.17
67555;HTU21D;54385;53.516;49.456;2023-04-30T03:55:30;18.32;38.00
67555;HTU21D;54385;53.516;49.456;2023-04-30T03:57:56;18.39;37.72
67555;HTU21D;54385;53.516;49.456;2023-04-30T04:00:23;18.50;37.82
67555;HTU21D;54385;53.516;49.456;2023-04-30T04:02:49;18.58;38.02
67555;HTU21D;54385;53.516;49.456;2023-04-30T04:05:16;18.63;37.26
67555;HTU21D;54385;53.516;49.456;2023-04-30T04:07:42;18.66;37.10
67555;HTU21D;54385;53.516;49.456;2023-04-30T04:10:09;18.76;37.38
67555;HTU21D;54385;53.516;49.456;2023-04-30T04:12:35;18.89;37.20
67555;HTU21D;54385;53.516;49.456;2023-04-30T04:15:03;18.96;37.30
67555;HTU21D;54385;53.516;49.456;2023-04-30T04:17:30;19.10;37.22
67555;HTU21D;54385;53.516;49.456;2023-04-30T04:19:56;19.23;36.90
67555;HTU21D;54385;53.516;49.456;2023-04-30T04:22:23;19.26;36.49
67555;HTU21D;54385;53.516;49.456;2023-04-30T04:24:49;19.25;36.31
67555;HTU21D;54385;53.516;49.456;2023-04-30T04:27:16;19.30;36.51
67555;HTU21D;54385;53.516;49.456;2023-04-30T04:29:43;19.27;36.66
67555;HTU21D;54385;53.516;49.456;2023-04-30T04:32:09;19.32;36.28
67555;HTU21D;54385;53.516;49.456;2023-04-30T04:34:36;19.40;36.50
67555;HTU21D;54385;53.516;49.456;2023-04-30T04:37:03;19.47;36.14
67555;HTU21D;54385;53.516;49.456;2023-04-30T04:39:30;19.48;36.75
67555;HTU21D;54385;53.516;49.456;2023-04-30T04:41:56;19.57;36.43
67555;HTU21D;54385;53.516;49.456;2023-04-30T04:44:23;19.63;36.82
67555;HTU21D;54385;53.516;49.456;2023-04-30T04:46:50;19.75;36.03
67555;HTU21D;54385;53.516;49.456;2023-04-30T04:49:19;19.86;35.69
67555;HTU21D;54385;53.516;49.456;2023-04-30T04:51:45;19.85;36.00
67555;HTU21D;54385;53.516;49.456;2023-04-30T04:54:12;19.97;35.60
67555;HTU21D;54385;53.516;49.456;2023-04-30T04:56:38;20.05;35.34
67555;HTU21D;54385;53.516;49.456;2023-04-30T04:59:05;20.14;35.01
67555;HTU21D;54385;53.516;49.456;2023-04-30T05:01:31;20.25;35.03
67555;HTU21D;54385;53.516;49.456;2023-04-30T05:03:58;20.31;34.84
67555;HTU21D;54385;53.516;49.456;2023-04-30T05:06:24;20.37;35.01
67555;HTU21D;54385;53.516;49.456;2023-04-30T05:08:52;20.47;34.99
67555;HTU21D;54385;53.516;49.456;2023-04-30T05:11:18;20.65;34.55
67555;HTU21D;54385;53.516;49.456;2023-04-30T05:13:44;20.75;34.20
67555;HTU21D;54385;53.516;49.456;2023-04-30T05:16:11;20.85;34.41
67555;HTU21D;54385;53.516;49.456;2023-04-30T05:18:38;20.98;33.93
67555;HTU21D;54385;53.516;49.456;2023-04-30T05:21:04;21.08;34.03
67555;HTU21D;54385;53.516;49.456;2023-04-30T05:23:31;21.23;33.56
67555;HTU21D;54385;53.516;49.456;2023-04-30T05:25:57;21.25;33.31
67555;HTU21D;54385;53.516;49.456;2023-04-30T05:28:24;21.37;33.20
67555;HTU21D;54385;53.516;49.456;2023-04-30T05:30:50;21.55;32.96
67555;HTU21D;54385;53.516;49.456;2023-04-30T05:33:17;21.67;32.73
67555;HTU21D;54385;53.516;49.456;2023-04-30T05:35:43;21.79;32.72
67555;HTU21D;54385;53.516;49.456;2023-04-30T05:38:10;21.90;32.23
67555;HTU21D;54385;53.516;49.456;2023-04-30T05:40:36;21.94;32.03
67555;HTU21D;54385;53.516;49.456;2023-04-30T05:43:03;22.01;32.09
67555;HTU21D;54385;53.516;49.456;2023-04-30T05:45:30;22.09;32.42
67555;HTU21D;54385;53.516;49.456;2023-04-30T05:47:56;22.16;31.92
67555;HTU21D;54385;53.516;49.456;2023-04-30T05:50:23;22.19;31.77
67555;HTU21D;54385;53.516;49.456;2023-04-30T05:52:49;22.23;31.73
67555;HTU21D;54385;53.516;49.456;2023-04-30T05:55:15;22.32;31.96
67555;HTU21D;54385;53.516;49.456;2023-04-30T05:57:42;22.33;31.54
67555;HTU21D;54385;53.516;49.456;2023-04-30T06:00:09;22.40;31.42
67555;HTU21D;54385;53.516;49.456;2023-04-30T06:02:35;22.42;31.13
67555;HTU21D;54385;53.516;49.456;2023-04-30T06:05:02;22.49;31.01
67555;HTU21D;54385;53.516;49.456;2023-04-30T06:07:28;22.67;31.16
67555;HTU21D;54385;53.516;49.456;2023-04-30T06:09:55;22.77;31.15
67555;HTU21D;54385;53.516;49.456;2023-04-30T06:12:22;22.83;30.51
67555;HTU21D;54385;53.516;49.456;2023-04-30T06:14:48;22.95;30.30
67555;HTU21D;54385;53.516;49.456;2023-04-30T06:17:15;23.03;30.67
67555;HTU21D;54385;53.516;49.456;2023-04-30T06:19:42;23.16;30.25
67555;HTU21D;54385;53.516;49.456;2023-04-30T06:22:08;23.29;29.35
67555;HTU21D;54385;53.516;49.456;2023-04-30T06:24:34;23.50;29.06
67555;HTU21D;54385;53.516;49.456;2023-04-30T06:27:01;23.66;28.87
67555;HTU21D;54385;53.516;49.456;2023-04-30T06:29:28;23.80;28.90
67555;HTU21D;54385;53.516;49.456;2023-04-30T06:31:55;23.90;28.00
67555;HTU21D;54385;53.516;49.456;2023-04-30T06:34:21;24.10;27.79
67555;HTU21D;54385;53.516;49.456;2023-04-30T06:36:48;24.19;27.19
67555;HTU21D;54385;53.516;49.456;2023-04-30T06:39:14;24.28;27.40
67555;HTU21D;54385;53.516;49.456;2023-04-30T06:41:41;24.40;26.78
67555;HTU21D;54385;53.516;49.456;2023-04-30T06:44:08;24.47;26.58
67555;HTU21D;54385;53.516;49.456;2023-04-30T06:46:35;24.47;26.55
67555;HTU21D;54385;53.516;49.456;2023-04-30T06:49:01;24.50;26.25
67555;HTU21D;54385;53.516;49.456;2023-04-30T06:51:28;24.65;26.26
67555;HTU21D;54385;53.516;49.456;2023-04-30T06:53:54;24.76;25.88
67555;HTU21D;54385;53.516;49.456;2023-04-30T06:56:21;24.85;25.56
67555;HTU21D;54385;53.516;49.456;2023-04-30T06:58:47;24.93;25.30
67555;HTU21D;54385;53.516;49.456;2023-04-30T07:01:15;25.03;25.11
67555;HTU21D;54385;53.516;49.456;2023-04-30T07:03:42;25.05;24.35
67555;HTU21D;54385;53.516;49.456;2023-04-30T07:06:08;25.03;24.62
67555;HTU21D;54385;53.516;49.456;2023-04-30T07:08:35;25.21;24.14
67555;HTU21D;54385;53.516;49.456;2023-04-30T07:11:02;25.37;23.77
67555;HTU21D;54385;53.516;49.456;2023-04-30T07:13:29;25.51;23.79
67555;HTU21D;54385;53.516;49.456;2023-04-30T07:15:55;25.51;23.58
67555;HTU21D;54385;53.516;49.456;2023-04-30T07:18:22;25.45;23.50
67555;HTU21D;54385;53.516;49.456;2023-04-30T07:20:48;25.57;23.59
67555;HTU21D;54385;53.516;49.456;2023-04-30T07:23:15;25.63;23.55
67555;HTU21D;54385;53.516;49.456;2023-04-30T07:25:41;25.64;23.43
67555;HTU21D;54385;53.516;49.456;2023-04-30T07:28:07;25.73;23.96
67555;HTU21D;54385;53.516;49.456;2023-04-30T07:30:34;25.80;23.31
67555;HTU21D;54385;53.516;49.456;2023-04-30T07:33:00;25.87;23.26
67555;HTU21D;54385;53.516;49.456;2023-04-30T07:35:27;26.06;22.51
67555;HTU21D;54385;53.516;49.456;2023-04-30T07:37:54;26.15;22.53
67555;HTU21D;54385;53.516;49.456;2023-04-30T07:40:21;26.15;22.15
67555;HTU21D;54385;53.516;49.456;2023-04-30T07:42:47;26.22;22.07
67555;HTU21D;54385;53.516;49.456;2023-04-30T07:45:14;26.35;22.30
67555;HTU21D;54385;53.516;49.456;2023-04-30T07:47:41;26.53;21.92
67555;HTU21D;54385;53.516;49.456;2023-04-30T07:50:07;26.67;21.57
67555;HTU21D;54385;53.516;49.456;2023-04-30T07:52:34;26.78;21.69
67555;HTU21D;54385;53.516;49.456;2023-04-30T07:55:00;26.84;21.89
67555;HTU21D;54385;53.516;49.456;2023-04-30T07:57:27;26.80;21.86
67555;HTU21D;54385;53.516;49.456;2023-04-30T07:59:53;26.64;21.86
67555;HTU21D;54385;53.516;49.456;2023-04-30T08:02:20;26.72;21.72
67555;HTU21D;54385;53.516;49.456;2023-04-30T08:04:47;26.89;21.63
67555;HTU21D;54385;53.516;49.456;2023-04-30T08:07:14;27.08;22.11
67555;HTU21D;54385;53.516;49.456;2023-04-30T08:09:41;27.15;21.74
67555;HTU21D;54385;53.516;49.456;2023-04-30T08:12:08;27.31;21.59
67555;HTU21D;54385;53.516;49.456;2023-04-30T08:14:35;27.55;20.89
67555;HTU21D;54385;53.516;49.456;2023-04-30T08:17:02;27.56;21.02
67555;HTU21D;54385;53.516;49.456;2023-04-30T08:19:28;27.70;20.59
67555;HTU21D;54385;53.516;49.456;2023-04-30T08:21:56;27.68;20.55
67555;HTU21D;54385;53.516;49.456;2023-04-30T08:24:22;27.54;20.18
67555;HTU21D;54385;53.516;49.456;2023-04-30T08:26:48;27.40;20.53
67555;HTU21D;54385;53.516;49.456;2023-04-30T08:29:15;27.35;20.83
67555;HTU21D;54385;53.516;49.456;2023-04-30T08:31:41;27.41;21.94
67555;HTU21D;54385;53.516;49.456;2023-04-30T08:34:08;27.39;21.30
67555;HTU21D;54385;53.516;49.456;2023-04-30T08:36:34;27.42;22.05
67555;HTU21D;54385;53.516;49.456;2023-04-30T08:39:01;27.61;21.35
67555;HTU21D;54385;53.516;49.456;2023-04-30T08:41:31;27.85;20.22
67555;HTU21D;54385;53.516;49.456;2023-04-30T08:44:02;28.03;20.66
67555;HTU21D;54385;53.516;49.456;2023-04-30T08:46:31;28.21;21.11
67555;HTU21D;54385;53.516;49.456;2023-04-30T08:48:58;28.39;20.08
67555;HTU21D;54385;53.516;49.456;2023-04-30T08:51:26;28.55;20.30
67555;HTU21D;54385;53.516;49.456;2023-04-30T08:53:55;28.64;19.41
67555;HTU21D;54385;53.516;49.456;2023-04-30T08:56:22;28.35;19.70
67555;HTU21D;54385;53.516;49.456;2023-04-30T08:58:50;28.27;19.59
67555;HTU21D;54385;53.516;49.456;2023-04-30T09:01:16;28.31;19.96
67555;HTU21D;54385;53.516;49.456;2023-04-30T09:03:43;28.29;19.60
67555;HTU21D;54385;53.516;49.456;2023-04-30T09:06:14;28.27;19.41
67555;HTU21D;54385;53.516;49.456;2023-04-30T09:08:46;28.41;19.14
67555;HTU21D;54385;53.516;49.456;2023-04-30T09:11:30;28.62;18.89
67555;HTU21D;54385;53.516;49.456;2023-04-30T09:13:58;28.85;18.82
67555;HTU21D;54385;53.516;49.456;2023-04-30T09:16:27;29.03;19.10
67555;HTU21D;54385;53.516;49.456;2023-04-30T09:18:55;29.19;19.03
67555;HTU21D;54385;53.516;49.456;2023-04-30T09:21:33;29.44;19.40
67555;HTU21D;54385;53.516;49.456;2023-04-30T09:24:02;29.53;19.16
67555;HTU21D;54385;53.516;49.456;2023-04-30T09:26:34;29.67;18.06
67555;HTU21D;54385;53.516;49.456;2023-04-30T09:29:02;29.45;18.89
67555;HTU21D;54385;53.516;49.456;2023-04-30T09:31:33;29.49;17.83
67555;HTU21D;54385;53.516;49.456;2023-04-30T09:34:01;29.46;17.90
67555;HTU21D;54385;53.516;49.456;2023-04-30T09:36:28;29.47;18.41
67555;HTU21D;54385;53.516;49.456;2023-04-30T09:38:55;29.35;18.37
67555;HTU21D;54385;53.516;49.456;2023-04-30T09:41:24;29.50;19.33
67555;HTU21D;54385;53.516;49.456;2023-04-30T09:43:54;29.71;18.52
67555;HTU21D;54385;53.516;49.456;2023-04-30T09:46:32;29.37;18.65
67555;HTU21D;54385;53.516;49.456;2023-04-30T09:49:00;29.61;18.73
67555;HTU21D;54385;53.516;49.456;2023-04-30T09:51:27;30.06;18.06
67555;HTU21D;54385;53.516;49.456;2023-04-30T09:53:54;30.19;18.10
67555;HTU21D;54385;53.516;49.456;2023-04-30T09:56:23;30.36;18.26
67555;HTU21D;54385;53.516;49.456;2023-04-30T09:58:55;30.47;18.29
67555;HTU21D;54385;53.516;49.456;2023-04-30T10:01:26;30.32;18.42
67555;HTU21D;54385;53.516;49.456;2023-04-30T10:03:52;30.07;18.08
67555;HTU21D;54385;53.516;49.456;2023-04-30T10:06:23;29.94;17.95
67555;HTU21D;54385;53.516;49.456;2023-04-30T10:08:55;30.25;17.99
67555;HTU21D;54385;53.516;49.456;2023-04-30T10:11:26;30.53;17.61
67555;HTU21D;54385;53.516;49.456;2023-04-30T10:13:59;30.92;17.36
67555;HTU21D;54385;53.516;49.456;2023-04-30T10:19:25;31.53;16.59
67555;HTU21D;54385;53.516;49.456;2023-04-30T10:21:54;31.20;17.94
67555;HTU21D;54385;53.516;49.456;2023-04-30T10:24:21;31.52;17.85
67555;HTU21D;54385;53.516;49.456;2023-04-30T10:26:48;31.61;18.34
67555;HTU21D;54385;53.516;49.456;2023-04-30T10:29:16;31.13;18.07
67555;HTU21D;54385;53.516;49.456;2023-04-30T10:31:45;30.74;18.31
67555;HTU21D;54385;53.516;49.456;2023-04-30T10:34:25;30.78;18.32
67555;HTU21D;54385;53.516;49.456;2023-04-30T10:39:40;30.56;18.97
67555;HTU21D;54385;53.516;49.456;2023-04-30T10:42:09;30.68;20.23
67555;HTU21D;54385;53.516;49.456;2023-04-30T10:44:36;30.71;19.16
67555;HTU21D;54385;53.516;49.456;2023-04-30T10:47:04;30.92;18.95
67555;HTU21D;54385;53.516;49.456;2023-04-30T10:49:31;31.14;19.37
67555;HTU21D;54385;53.516;49.456;2023-04-30T10:51:59;31.38;18.48
67555;HTU21D;54385;53.516;49.456;2023-04-30T10:54:28;31.48;18.54
67555;HTU21D;54385;53.516;49.456;2023-04-30T10:57:16;31.00;19.74
67555;HTU21D;54385;53.516;49.456;2023-04-30T11:00:17;30.85;19.61
67555;HTU21D;54385;53.516;49.456;2023-04-30T11:02:40;30.85;20.36
67555;HTU21D;54385;53.516;49.456;2023-04-30T11:05:10;30.99;19.50
67555;HTU21D;54385;53.516;49.456;2023-04-30T11:07:48;31.05;19.58
67555;HTU21D;54385;53.516;49.456;2023-04-30T11:10:15;31.05;20.45
67555;HTU21D;54385;53.516;49.456;2023-04-30T11:12:47;30.84;20.54
67555;HTU21D;54385;53.516;49.456;2023-04-30T11:15:34;30.85;20.50
67555;HTU21D;54385;53.516;49.456;2023-04-30T11:18:05;31.12;20.41
67555;HTU21D;54385;53.516;49.456;2023-04-30T11:20:39;31.52;20.59
67555;HTU21D;54385;53.516;49.456;2023-04-30T11:23:10;31.76;19.39
67555;HTU21D;54385;53.516;49.456;2023-04-30T11:25:41;31.68;19.57
67555;HTU21D;54385;53.516;49.456;2023-04-30T11:28:21;31.69;19.20
67555;HTU21D;54385;53.516;49.456;2023-04-30T11:30:56;31.65;19.51
67555;HTU21D;54385;53.516;49.456;2023-04-30T11:33:25;31.64;19.77
67555;HTU21D;54385;53.516;49.456;2023-04-30T11:35:52;31.69;19.80
67555;HTU21D;54385;53.516;49.456;2023-04-30T11:38:33;31.71;19.77
67555;HTU21D;54385;53.516;49.456;2023-04-30T11:41:01;31.83;19.73
67555;HTU21D;54385;53.516;49.456;2023-04-30T11:43:30;31.90;19.08
67555;HTU21D;54385;53.516;49.456;2023-04-30T11:48:42;31.93;19.25
67555;HTU21D;54385;53.516;49.456;2023-04-30T11:53:41;31.52;20.20
67555;HTU21D;54385;53.516;49.456;2023-04-30T11:56:08;31.33;20.23
67555;HTU21D;54385;53.516;49.456;2023-04-30T11:58:35;31.06;20.58
67555;HTU21D;54385;53.516;49.456;2023-04-30T12:01:06;30.77;21.14
67555;HTU21D;54385;53.516;49.456;2023-04-30T12:03:42;30.61;21.44
67555;HTU21D;54385;53.516;49.456;2023-04-30T12:06:20;30.54;21.71
67555;HTU21D;54385;53.516;49.456;2023-04-30T12:08:47;30.52;21.34
67555;HTU21D;54385;53.516;49.456;2023-04-30T12:11:22;30.50;21.23
67555;HTU21D;54385;53.516;49.456;2023-04-30T12:13:56;30.55;20.92
67555;HTU21D;54385;53.516;49.456;2023-04-30T12:16:23;30.37;20.97
67555;HTU21D;54385;53.516;49.456;2023-04-30T12:18:50;30.21;21.21
67555;HTU21D;54385;53.516;49.456;2023-04-30T12:21:17;30.36;21.15
67555;HTU21D;54385;53.516;49.456;2023-04-30T12:23:44;30.68;20.76
67555;HTU21D;54385;53.516;49.456;2023-04-30T12:26:10;30.92;21.47
67555;HTU21D;54385;53.516;49.456;2023-04-30T12:28:37;31.12;20.93
67555;HTU21D;54385;53.516;49.456;2023-04-30T12:31:04;31.38;20.75
67555;HTU21D;54385;53.516;49.456;2023-04-30T12:33:31;31.63;20.24
67555;HTU21D;54385;53.516;49.456;2023-04-30T12:35:57;31.39;20.45
67555;HTU21D;54385;53.516;49.456;2023-04-30T12:38:24;31.21;20.83
67555;HTU21D;54385;53.516;49.456;2023-04-30T12:40:51;30.89;21.11
67555;HTU21D;54385;53.516;49.456;2023-04-30T12:43:17;30.45;21.55
67555;HTU21D;54385;53.516;49.456;2023-04-30T12:45:49;30.31;21.78
67555;HTU21D;54385;53.516;49.456;2023-04-30T12:48:18;30.07;21.89
67555;HTU21D;54385;53.516;49.456;2023-04-30T12:53:21;29.71;22.32
67555;HTU21D;54385;53.516;49.456;2023-04-30T12:56:13;29.48;22.53
67555;HTU21D;54385;53.516;49.456;2023-04-30T12:58:43;29.26;22.75
67555;HTU21D;54385;53.516;49.456;2023-04-30T13:01:21;29.16;23.72
67555;HTU21D;54385;53.516;49.456;2023-04-30T13:03:49;28.98;23.68
67555;HTU21D;54385;53.516;49.456;2023-04-30T13:06:16;28.92;24.00
67555;HTU21D;54385;53.516;49.456;2023-04-30T13:08:45;28.98;24.17
67555;HTU21D;54385;53.516;49.456;2023-04-30T13:11:12;29.17;24.01
67555;HTU21D;54385;53.516;49.456;2023-04-30T13:13:38;29.54;23.11
67555;HTU21D;54385;53.516;49.456;2023-04-30T13:16:05;29.83;22.85
67555;HTU21D;54385;53.516;49.456;2023-04-30T13:18:32;30.12;22.95
67555;HTU21D;54385;53.516;49.456;2023-04-30T13:20:58;30.41;22.63
67555;HTU21D;54385;53.516;49.456;2023-04-30T13:23:25;30.66;22.21
67555;HTU21D;54385;53.516;49.456;2023-04-30T13:25:51;30.75;21.96
67555;HTU21D;54385;53.516;49.456;2023-04-30T13:28:18;30.86;21.96
67555;HTU21D;54385;53.516;49.456;2023-04-30T13:30:44;30.94;21.79
67555;HTU21D;54385;53.516;49.456;2023-04-30T13:33:11;30.55;22.19
67555;HTU21D;54385;53.516;49.456;2023-04-30T13:35:38;30.47;21.98
67555;HTU21D;54385;53.516;49.456;2023-04-30T13:38:04;30.77;21.89
67555;HTU21D;54385;53.516;49.456;2023-04-30T13:40:31;30.82;21.79
67555;HTU21D;54385;53.516;49.456;2023-04-30T13:42:58;30.65;22.02
67555;HTU21D;54385;53.516;49.456;2023-04-30T13:45:24;30.35;21.97
67555;HTU21D;54385;53.516;49.456;2023-04-30T13:47:51;30.05;22.71
67555;HTU21D;54385;53.516;49.456;2023-04-30T13:50:17;29.82;22.84
67555;HTU21D;54385;53.516;49.456;2023-04-30T13:52:44;29.77;22.82
67555;HTU21D;54385;53.516;49.456;2023-04-30T13:55:10;29.65;23.27
67555;HTU21D;54385;53.516;49.456;2023-04-30T13:57:37;29.60;23.01
67555;HTU21D;54385;53.516;49.456;2023-04-30T14:00:06;29.45;23.37
67555;HTU21D;54385;53.516;49.456;2023-04-30T14:02:32;29.43;23.58
67555;HTU21D;54385;53.516;49.456;2023-04-30T14:04:59;29.19;23.78
67555;HTU21D;54385;53.516;49.456;2023-04-30T14:07:28;28.98;24.01
67555;HTU21D;54385;53.516;49.456;2023-04-30T14:09:54;28.83;24.36
67555;HTU21D;54385;53.516;49.456;2023-04-30T14:12:21;28.60;24.59
67555;HTU21D;54385;53.516;49.456;2023-04-30T14:14:49;28.43;25.12
67555;HTU21D;54385;53.516;49.456;2023-04-30T14:17:15;28.11;25.75
67555;HTU21D;54385;53.516;49.456;2023-04-30T14:19:42;27.93;25.97
67555;HTU21D;54385;53.516;49.456;2023-04-30T14:22:08;27.79;25.94
67555;HTU21D;54385;53.516;49.456;2023-04-30T14:24:35;27.71;26.02
67555;HTU21D;54385;53.516;49.456;2023-04-30T14:27:02;27.64;26.33
67555;HTU21D;54385;53.516;49.456;2023-04-30T14:29:29;27.44;26.62
67555;HTU21D;54385;53.516;49.456;2023-04-30T14:31:55;27.38;26.65
67555;HTU21D;54385;53.516;49.456;2023-04-30T14:34:22;27.32;26.57
67555;HTU21D;54385;53.516;49.456;2023-04-30T14:36:49;27.26;26.80
67555;HTU21D;54385;53.516;49.456;2023-04-30T14:39:15;27.24;26.71
67555;HTU21D;54385;53.516;49.456;2023-04-30T14:41:42;27.17;27.01
67555;HTU21D;54385;53.516;49.456;2023-04-30T14:44:09;27.11;27.20
67555;HTU21D;54385;53.516;49.456;2023-04-30T14:46:35;27.14;27.05
67555;HTU21D;54385;53.516;49.456;2023-04-30T14:49:02;27.06;27.24
67555;HTU21D;54385;53.516;49.456;2023-04-30T14:51:29;27.04;27.11
67555;HTU21D;54385;53.516;49.456;2023-04-30T14:53:57;27.09;27.36
67555;HTU21D;54385;53.516;49.456;2023-04-30T14:56:24;27.01;27.31
67555;HTU21D;54385;53.516;49.456;2023-04-30T14:58:50;26.93;27.67
67555;HTU21D;54385;53.516;49.456;2023-04-30T15:01:17;26.83;27.39
67555;HTU21D;54385;53.516;49.456;2023-04-30T15:03:43;26.79;27.80
67555;HTU21D;54385;53.516;49.456;2023-04-30T15:06:10;26.80;27.42
67555;HTU21D;54385;53.516;49.456;2023-04-30T15:08:37;26.80;27.38
67555;HTU21D;54385;53.516;49.456;2023-04-30T15:11:03;26.73;27.39
67555;HTU21D;54385;53.516;49.456;2023-04-30T15:13:32;26.69;27.34
67555;HTU21D;54385;53.516;49.456;2023-04-30T15:15:58;26.62;27.58
67555;HTU21D;54385;53.516;49.456;2023-04-30T15:18:24;26.55;27.78
67555;HTU21D;54385;53.516;49.456;2023-04-30T15:20:51;26.40;28.13
67555;HTU21D;54385;53.516;49.456;2023-04-30T15:23:21;26.28;28.13
67555;HTU21D;54385;53.516;49.456;2023-04-30T15:25:47;26.19;28.19
67555;HTU21D;54385;53.516;49.456;2023-04-30T15:28:14;26.05;28.23
67555;HTU21D;54385;53.516;49.456;2023-04-30T15:30:41;26.01;28.52
67555;HTU21D;54385;53.516;49.456;2023-04-30T15:33:08;25.91;28.80
67555;HTU21D;54385;53.516;49.456;2023-04-30T15:35:34;25.80;28.95